createdAt,value
2023-05-14T00:01:18.088Z,13.02
2023-05-14T00:04:20.429Z,11.60
2023-05-14T00:07:22.722Z,9.85
2023-05-14T00:10:25.227Z,12.23
2023-05-14T00:13:27.514Z,11.10
2023-05-14T00:16:29.846Z,13.75
2023-05-14T00:19:32.225Z,12.05
2023-05-14T00:22:34.935Z,9.27
2023-05-14T00:25:37.213Z,11.10
2023-05-14T00:28:39.387Z,10.35
2023-05-14T00:31:41.661Z,10.00
2023-05-14T00:34:43.987Z,18.58
2023-05-14T00:37:46.155Z,9.48
2023-05-14T00:40:51.921Z,9.63
2023-05-14T00:43:54.419Z,10.13
2023-05-14T00:46:56.730Z,11.10
2023-05-14T00:49:59.010Z,10.27
2023-05-14T00:53:01.241Z,10.18
2023-05-14T00:56:03.585Z,11.83
2023-05-14T00:59:05.881Z,9.75
2023-05-14T01:02:08.200Z,12.73
2023-05-14T01:05:10.458Z,9.43
2023-05-14T01:08:18.289Z,10.65
2023-05-14T01:11:24.486Z,10.00
2023-05-14T01:14:36.086Z,10.10
2023-05-14T01:17:53.759Z,10.13
2023-05-14T01:20:56.072Z,11.65
2023-05-14T01:23:58.364Z,10.35
2023-05-14T01:27:10.648Z,10.57
2023-05-14T01:30:26.307Z,12.90
2023-05-14T01:33:29.381Z,12.55
2023-05-14T01:36:31.953Z,10.77
2023-05-14T01:39:37.884Z,11.48
2023-05-14T01:42:40.418Z,8.30
2023-05-14T01:45:43.674Z,8.98
2023-05-14T01:48:46.005Z,10.90
2023-05-14T01:51:48.176Z,10.27
2023-05-14T01:54:50.556Z,9.90
2023-05-14T01:57:53.351Z,9.97
2023-05-14T02:00:55.606Z,10.65
2023-05-14T02:03:57.840Z,8.77
2023-05-14T02:07:00.371Z,9.25
2023-05-14T02:10:02.773Z,9.60
2023-05-14T02:13:05.488Z,10.53
2023-05-14T02:16:07.813Z,8.43
2023-05-14T02:19:10.125Z,10.85
2023-05-14T02:22:12.637Z,10.30
2023-05-14T02:25:14.930Z,9.45
2023-05-14T02:28:17.098Z,9.80
2023-05-14T02:31:19.600Z,9.90
2023-05-14T02:34:21.973Z,9.88
2023-05-14T02:37:24.204Z,8.95
2023-05-14T02:40:27.274Z,8.07
2023-05-14T02:43:29.726Z,8.47
2023-05-14T02:46:32.431Z,8.27
2023-05-14T02:49:34.623Z,7.28
2023-05-14T02:52:37.005Z,10.00
2023-05-14T02:55:39.233Z,9.45
2023-05-14T02:58:41.545Z,7.90
2023-05-14T03:01:43.878Z,8.35
2023-05-14T03:04:46.857Z,7.78
2023-05-14T03:07:50.473Z,8.88
2023-05-14T03:10:52.670Z,8.25
2023-05-14T03:13:54.857Z,9.07
2023-05-14T03:16:57.079Z,7.68
2023-05-14T03:19:59.399Z,7.45
2023-05-14T03:23:02.442Z,8.32
2023-05-14T03:26:05.064Z,9.27
2023-05-14T03:29:07.278Z,8.70
2023-05-14T03:32:10.116Z,8.60
2023-05-14T03:35:12.316Z,6.93
2023-05-14T03:38:14.530Z,9.52
2023-05-14T03:41:18.563Z,8.63
2023-05-14T03:44:20.779Z,7.03
2023-05-14T03:47:23.172Z,6.78
2023-05-14T03:50:27.035Z,8.75
2023-05-14T03:53:29.303Z,7.80
2023-05-14T03:56:31.592Z,7.68
2023-05-14T03:59:33.768Z,7.00
2023-05-14T04:02:36.220Z,7.57
2023-05-14T04:05:38.623Z,9.40
2023-05-14T04:08:40.911Z,7.22
2023-05-14T04:11:43.725Z,6.88
2023-05-14T04:14:46.182Z,7.07
2023-05-14T04:17:48.468Z,7.60
2023-05-14T04:20:50.673Z,8.50
2023-05-14T04:23:52.869Z,7.65
2023-05-14T04:26:55.063Z,8.88
2023-05-14T04:29:57.265Z,8.13
2023-05-14T04:32:59.474Z,8.60
2023-05-14T04:36:02.122Z,7.47
2023-05-14T04:39:04.359Z,8.48
2023-05-14T04:42:06.901Z,10.30
2023-05-14T04:45:09.257Z,8.80
2023-05-14T04:48:11.545Z,7.72
2023-05-14T04:51:13.988Z,10.65
2023-05-14T04:54:16.300Z,7.78
2023-05-14T04:57:18.618Z,7.13
2023-05-14T05:00:22.197Z,8.27
2023-05-14T05:03:24.851Z,9.45
2023-05-14T05:06:27.123Z,7.07
2023-05-14T05:09:29.390Z,6.03
2023-05-14T05:12:31.582Z,11.48
2023-05-14T05:15:33.818Z,8.67
2023-05-14T05:18:35.999Z,8.27
2023-05-14T05:21:40.354Z,7.28
2023-05-14T05:24:42.645Z,7.10
2023-05-14T05:27:44.869Z,7.22
2023-05-14T05:30:47.146Z,9.27
2023-05-14T05:33:49.522Z,7.63
2023-05-14T05:36:51.800Z,8.00
2023-05-14T05:39:54.173Z,8.10
2023-05-14T05:42:56.498Z,7.03
2023-05-14T05:45:58.723Z,8.00
2023-05-14T05:49:00.944Z,8.18
2023-05-14T05:52:04.100Z,7.60
2023-05-14T05:55:06.806Z,7.65
2023-05-14T05:58:09.057Z,8.48
2023-05-14T06:01:11.250Z,9.10
2023-05-14T06:04:13.483Z,8.52
2023-05-14T06:07:15.754Z,7.07
2023-05-14T06:10:17.961Z,7.55
2023-05-14T06:13:20.174Z,8.05
2023-05-14T06:16:22.399Z,7.33
2023-05-14T06:19:24.625Z,7.68
2023-05-14T06:22:26.810Z,10.05
2023-05-14T06:25:29.041Z,8.13
2023-05-14T06:28:31.183Z,8.63
2023-05-14T06:31:33.605Z,9.37
2023-05-14T06:34:35.996Z,7.30
2023-05-14T06:37:38.253Z,8.88
2023-05-14T06:40:40.491Z,9.38
2023-05-14T06:43:42.666Z,9.60
2023-05-14T06:46:44.879Z,7.50
2023-05-14T06:49:47.079Z,7.82
2023-05-14T06:52:49.228Z,8.73
2023-05-14T06:55:51.489Z,7.43
2023-05-14T06:58:53.735Z,9.32
2023-05-14T07:01:56.135Z,8.47
2023-05-14T07:04:58.478Z,8.98
2023-05-14T07:08:00.826Z,7.53
2023-05-14T07:11:03.088Z,7.32
2023-05-14T07:14:05.409Z,9.35
2023-05-14T07:17:07.620Z,8.27
2023-05-14T07:20:10.135Z,8.43
2023-05-14T07:23:12.378Z,7.47
2023-05-14T07:26:14.581Z,10.07
2023-05-14T07:29:16.912Z,9.95
2023-05-14T07:32:19.185Z,8.60
2023-05-14T07:35:21.456Z,7.47
2023-05-14T07:38:23.726Z,10.18
2023-05-14T07:41:25.974Z,8.85
2023-05-14T07:44:28.196Z,9.43
2023-05-14T07:47:30.735Z,8.33
2023-05-14T07:50:33.016Z,8.63
2023-05-14T07:53:35.377Z,8.93
2023-05-14T07:56:37.591Z,9.57
2023-05-14T07:59:39.840Z,7.80
2023-05-14T08:02:42.793Z,8.63
2023-05-14T08:05:45.597Z,10.20
2023-05-14T08:08:47.851Z,9.23
2023-05-14T08:11:50.097Z,9.75
2023-05-14T08:14:52.571Z,10.60
2023-05-14T08:17:55.039Z,7.60
2023-05-14T08:20:57.279Z,9.50
2023-05-14T08:23:59.506Z,10.25
2023-05-14T08:27:02.394Z,9.40
2023-05-14T08:30:04.889Z,9.35
2023-05-14T08:33:07.248Z,7.80
2023-05-14T08:36:09.613Z,10.57
2023-05-14T08:39:11.871Z,9.20
2023-05-14T08:42:15.693Z,10.30
2023-05-14T08:45:23.310Z,10.80
2023-05-14T08:48:26.922Z,10.53
2023-05-14T08:51:29.282Z,9.70
2023-05-14T08:54:32.635Z,10.32
2023-05-14T08:57:34.952Z,10.43
2023-05-14T09:00:37.407Z,10.05
2023-05-14T09:03:39.843Z,8.40
2023-05-14T09:06:42.212Z,10.65
2023-05-14T09:09:45.964Z,10.18
2023-05-14T09:12:48.170Z,10.32
2023-05-14T09:15:51.348Z,10.00
2023-05-14T09:18:53.686Z,8.67
2023-05-14T09:21:57.788Z,9.73
2023-05-14T09:25:07.138Z,10.95
2023-05-14T09:28:09.778Z,11.57
2023-05-14T09:31:12.152Z,8.63
2023-05-14T09:34:23.255Z,9.50
2023-05-14T09:37:26.307Z,10.60
2023-05-14T09:40:28.812Z,10.88
2023-05-14T09:43:31.520Z,13.05
2023-05-14T09:46:33.738Z,10.18
2023-05-14T09:49:36.059Z,11.40
2023-05-14T09:52:38.991Z,9.85
2023-05-14T09:55:42.000Z,9.55
2023-05-14T09:58:44.259Z,12.55
2023-05-14T10:01:46.696Z,11.38
2023-05-14T10:04:58.062Z,10.60
2023-05-14T10:08:01.751Z,10.15
2023-05-14T10:11:06.797Z,15.05
2023-05-14T10:14:24.597Z,11.25
2023-05-14T10:17:27.918Z,10.65
2023-05-14T10:20:31.072Z,12.33
2023-05-14T10:23:34.093Z,11.60
2023-05-14T10:26:40.827Z,10.05
2023-05-14T10:29:51.218Z,11.55
2023-05-14T10:33:25.885Z,10.70
2023-05-14T10:36:30.148Z,10.47
2023-05-14T10:39:41.559Z,12.68
2023-05-14T10:42:43.839Z,11.05
2023-05-14T10:45:46.195Z,10.00
2023-05-14T10:48:49.662Z,12.10
2023-05-14T10:51:52.988Z,10.10
2023-05-14T10:55:03.654Z,10.55
2023-05-14T10:58:06.204Z,10.95
2023-05-14T11:01:09.227Z,11.77
2023-05-14T11:04:18.419Z,10.35
2023-05-14T11:07:23.869Z,12.83
2023-05-14T11:10:29.790Z,10.43
2023-05-14T11:13:33.079Z,12.52
2023-05-14T11:16:35.459Z,10.65
2023-05-14T11:19:37.734Z,11.60
2023-05-14T11:22:41.772Z,9.33
2023-05-14T11:25:43.987Z,9.70
2023-05-14T11:28:46.835Z,9.80
2023-05-14T11:31:50.334Z,10.60
2023-05-14T11:34:52.817Z,13.18
2023-05-14T11:37:54.992Z,9.73
2023-05-14T11:40:59.853Z,9.93
2023-05-14T11:44:03.337Z,12.23
2023-05-14T11:47:06.508Z,11.05
2023-05-14T11:50:09.758Z,11.18
2023-05-14T11:53:12.177Z,11.57
2023-05-14T11:56:14.522Z,12.27
2023-05-14T11:59:17.311Z,11.65
2023-05-14T12:02:19.995Z,15.55
2023-05-14T12:05:22.304Z,11.05
2023-05-14T12:08:27.746Z,12.07
2023-05-14T12:11:30.968Z,11.68
2023-05-14T12:14:36.976Z,13.70
2023-05-14T12:17:39.828Z,12.55
2023-05-14T12:20:46.741Z,13.38
2023-05-14T12:23:56.708Z,12.47
2023-05-14T12:27:01.317Z,13.68
2023-05-14T12:30:19.811Z,14.05
2023-05-14T12:33:24.009Z,14.25
2023-05-14T12:36:26.353Z,16.35
2023-05-14T12:39:28.561Z,13.80
2023-05-14T12:42:30.780Z,13.52
2023-05-14T12:45:33.069Z,14.50
2023-05-14T12:48:35.338Z,14.77
2023-05-14T12:51:37.553Z,13.48
2023-05-14T12:54:42.901Z,14.83
2023-05-14T12:57:45.291Z,14.10
2023-05-14T13:00:47.655Z,14.90
2023-05-14T13:03:49.948Z,15.45
2023-05-14T13:06:52.461Z,15.60
2023-05-14T13:09:54.778Z,16.63
2023-05-14T13:12:56.961Z,16.83
2023-05-14T13:15:59.130Z,17.17
2023-05-14T13:19:01.391Z,15.45
2023-05-14T13:22:03.700Z,17.98
2023-05-14T13:25:06.472Z,15.70
2023-05-14T13:28:09.246Z,16.60
2023-05-14T13:31:12.397Z,17.52
2023-05-14T13:34:14.817Z,17.75
2023-05-14T13:37:17.093Z,17.30
2023-05-14T13:40:19.408Z,20.33
2023-05-14T13:43:21.609Z,19.33
2023-05-14T13:46:23.907Z,17.92
2023-05-14T13:49:26.168Z,16.40
2023-05-14T13:52:28.372Z,15.48
2023-05-14T13:55:30.702Z,18.93
2023-05-14T13:58:32.966Z,18.05
2023-05-14T14:01:35.404Z,16.95
2023-05-14T14:04:37.650Z,18.08
2023-05-14T14:07:40.759Z,19.23
2023-05-14T14:10:42.970Z,20.53
2023-05-14T14:13:46.671Z,19.70
2023-05-14T14:16:49.096Z,17.58
2023-05-14T14:19:51.318Z,16.95
2023-05-14T14:22:54.146Z,12.65
2023-05-14T14:25:57.654Z,12.53
2023-05-14T14:28:59.885Z,11.70
2023-05-14T14:32:02.368Z,11.77
2023-05-14T14:35:04.863Z,12.68
2023-05-14T14:38:07.054Z,11.65
2023-05-14T14:41:10.174Z,9.90
2023-05-14T14:44:12.458Z,10.10
2023-05-14T14:47:14.674Z,10.25
2023-05-14T14:50:16.840Z,9.48
2023-05-14T14:53:20.038Z,9.73
2023-05-14T14:56:22.462Z,10.60
2023-05-14T14:59:24.734Z,9.70
2023-05-14T15:02:26.990Z,11.15
2023-05-14T15:05:29.259Z,10.80
2023-05-14T15:08:31.478Z,9.80
2023-05-14T15:11:35.510Z,11.60
2023-05-14T15:14:39.003Z,11.25
2023-05-14T15:17:41.447Z,7.65
2023-05-14T15:20:43.885Z,9.98
2023-05-14T15:23:46.228Z,10.52
2023-05-14T15:26:48.402Z,10.03
2023-05-14T15:29:50.674Z,9.35
2023-05-14T15:32:53.618Z,9.80
2023-05-14T15:35:56.000Z,11.98
2023-05-14T15:38:59.131Z,12.88
2023-05-14T15:42:01.439Z,11.20
2023-05-14T15:45:04.090Z,10.02
2023-05-14T15:48:07.272Z,11.00
2023-05-14T15:51:09.622Z,10.55
2023-05-14T15:54:11.860Z,8.65
2023-05-14T15:57:14.088Z,10.53
2023-05-14T16:00:16.565Z,9.32
2023-05-14T16:03:18.890Z,9.43
2023-05-14T16:06:21.211Z,8.93
2023-05-14T16:09:23.407Z,7.70
2023-05-14T16:12:25.623Z,9.67
2023-05-14T16:15:27.865Z,9.48
2023-05-14T16:18:30.191Z,8.32
2023-05-14T16:21:34.277Z,8.30
2023-05-14T16:24:36.550Z,8.13
2023-05-14T16:27:38.794Z,8.93
2023-05-14T16:30:41.058Z,7.78
2023-05-14T16:33:43.269Z,8.95
2023-05-14T16:36:45.618Z,9.48
2023-05-14T16:39:48.565Z,8.30
2023-05-14T16:42:51.336Z,8.73
2023-05-14T16:45:53.521Z,8.90
2023-05-14T16:48:56.126Z,9.27
2023-05-14T16:51:58.515Z,8.82
2023-05-14T16:55:00.765Z,8.90
2023-05-14T16:58:03.005Z,10.70
2023-05-14T17:01:07.376Z,8.00
2023-05-14T17:04:11.807Z,8.65
2023-05-14T17:07:14.528Z,9.23
2023-05-14T17:10:17.068Z,10.32
2023-05-14T17:13:20.454Z,8.70
2023-05-14T17:16:22.817Z,11.05
2023-05-14T17:19:25.171Z,8.77
2023-05-14T17:22:27.367Z,9.45
2023-05-14T17:25:29.637Z,11.30
2023-05-14T17:28:31.909Z,9.40
2023-05-14T17:31:34.208Z,11.60
2023-05-14T17:34:36.489Z,14.25
2023-05-14T17:37:38.858Z,13.50
2023-05-14T17:40:41.214Z,12.48
2023-05-14T17:43:43.500Z,11.63
2023-05-14T17:46:46.043Z,11.55
2023-05-14T17:49:48.449Z,12.15
2023-05-14T17:52:50.676Z,11.35
2023-05-14T17:55:52.944Z,11.35
2023-05-14T17:58:55.154Z,11.00
2023-05-14T18:01:57.351Z,12.30
2023-05-14T18:05:00.418Z,10.93
2023-05-14T18:08:03.347Z,10.93
2023-05-14T18:11:05.585Z,11.25
2023-05-14T18:14:07.941Z,10.40
2023-05-14T18:17:10.617Z,9.45
2023-05-14T18:20:12.948Z,13.13
2023-05-14T18:23:15.471Z,11.65
2023-05-14T18:26:17.791Z,8.98
2023-05-14T18:29:20.105Z,14.13
2023-05-14T18:32:22.389Z,12.13
2023-05-14T18:35:24.795Z,12.50
2023-05-14T18:38:27.298Z,11.57
2023-05-14T18:41:29.717Z,13.82
2023-05-14T18:44:31.939Z,14.33
2023-05-14T18:47:34.961Z,11.38
2023-05-14T18:50:39.228Z,11.13
2023-05-14T18:53:42.569Z,14.05
2023-05-14T18:56:47.396Z,9.73
2023-05-14T18:59:49.998Z,11.83
2023-05-14T19:02:52.245Z,12.60
2023-05-14T19:05:54.627Z,13.30
2023-05-14T19:08:58.604Z,10.68
2023-05-14T19:12:00.860Z,11.80
2023-05-14T19:15:03.166Z,13.80
2023-05-14T19:18:05.653Z,13.50
2023-05-14T19:21:08.189Z,10.20
2023-05-14T19:24:10.527Z,13.25
2023-05-14T19:27:16.206Z,12.52
2023-05-14T19:30:19.485Z,10.97
2023-05-14T19:33:21.920Z,12.85
2023-05-14T19:36:24.150Z,10.68
2023-05-14T19:39:26.500Z,9.88
2023-05-14T19:42:28.709Z,14.13
2023-05-14T19:45:31.037Z,11.47
2023-05-14T19:48:33.713Z,11.38
2023-05-14T19:51:36.054Z,11.55
2023-05-14T19:54:38.583Z,10.82
2023-05-14T19:57:40.816Z,10.80
2023-05-14T20:00:43.359Z,9.63
2023-05-14T20:03:46.087Z,11.20
2023-05-14T20:06:49.336Z,12.75
2023-05-14T20:09:51.810Z,13.40
2023-05-14T20:12:53.986Z,12.85
2023-05-14T20:15:56.287Z,12.40
2023-05-14T20:18:58.676Z,13.27
2023-05-14T20:22:01.001Z,14.43
2023-05-14T20:25:03.831Z,13.77
2023-05-14T20:28:06.348Z,13.73
2023-05-14T20:31:08.532Z,12.47
2023-05-14T20:34:10.844Z,12.20
2023-05-14T20:37:13.072Z,12.10
2023-05-14T20:40:15.737Z,12.25
2023-05-14T20:43:17.992Z,9.55
2023-05-14T20:46:20.326Z,10.43
2023-05-14T20:49:22.583Z,9.50
2023-05-14T20:52:24.943Z,11.25
2023-05-14T20:55:27.610Z,10.45
2023-05-14T20:58:29.948Z,9.40
2023-05-14T21:01:32.206Z,13.63
2023-05-14T21:04:34.737Z,9.10
2023-05-14T21:07:37.468Z,12.30
2023-05-14T21:10:39.721Z,13.27
2023-05-14T21:13:43.141Z,10.15
2023-05-14T21:16:45.556Z,12.03
2023-05-14T21:19:47.838Z,13.75
2023-05-14T21:22:50.087Z,13.85
2023-05-14T21:25:54.765Z,14.68
2023-05-14T21:28:56.953Z,13.13
2023-05-14T21:31:59.264Z,13.47
2023-05-14T21:35:01.576Z,13.57
2023-05-14T21:38:04.156Z,11.90
2023-05-14T21:41:06.293Z,14.30
2023-05-14T21:44:08.528Z,11.25
2023-05-14T21:47:11.516Z,13.70
2023-05-14T21:50:13.930Z,14.27
2023-05-14T21:53:16.135Z,15.68
2023-05-14T21:56:18.317Z,13.73
2023-05-14T21:59:20.709Z,13.95
2023-05-14T22:02:23.076Z,15.07
2023-05-14T22:05:25.685Z,13.57
2023-05-14T22:08:29.649Z,13.60
2023-05-14T22:11:31.877Z,13.90
2023-05-14T22:14:34.130Z,13.68
2023-05-14T22:17:36.512Z,13.27
2023-05-14T22:20:39.237Z,14.13
2023-05-14T22:23:41.529Z,16.30
2023-05-14T22:26:44.045Z,13.88
2023-05-14T22:29:46.314Z,13.50
2023-05-14T22:32:48.605Z,15.90
2023-05-14T22:35:51.459Z,14.60
2023-05-14T22:38:53.698Z,15.70
2023-05-14T22:41:55.986Z,14.13
2023-05-14T22:44:58.137Z,14.32
2023-05-14T22:48:00.536Z,15.77
2023-05-14T22:51:02.772Z,18.45
2023-05-14T22:54:05.336Z,15.75
2023-05-14T22:57:07.702Z,18.15
2023-05-14T23:00:10.415Z,17.27
2023-05-14T23:03:12.586Z,16.53
2023-05-14T23:06:14.854Z,16.67
2023-05-14T23:09:17.115Z,16.58
2023-05-14T23:12:19.374Z,16.98
2023-05-14T23:15:21.652Z,18.10
2023-05-14T23:18:24.125Z,17.63
2023-05-14T23:21:26.370Z,18.42
2023-05-14T23:24:28.605Z,16.92
2023-05-14T23:27:30.786Z,17.52
2023-05-14T23:30:32.935Z,16.80
2023-05-14T23:33:35.176Z,15.63
2023-05-14T23:36:37.787Z,19.40
2023-05-14T23:39:39.976Z,19.10
2023-05-14T23:42:42.254Z,18.75
2023-05-14T23:45:44.469Z,21.08
2023-05-14T23:48:46.840Z,20.03
2023-05-14T23:51:49.088Z,18.20
2023-05-14T23:54:51.297Z,19.15
2023-05-14T23:57:53.503Z,19.58
